Time;durP1;ratioP1;P1;durP2;ratioP2;P2;SDS_P1;SDS_P2;PMS_P1;PMS_P2;Temp;Humidity;BMP_temperature;BMP_pressure;BME280_temperature;BME280_humidity;BME280_pressure;Samples;Min_cycle;Max_cycle;Signal;HPM_P1;HPM_P2
2023/01/07 00:00:49;;;;;;;1.60;1.50;;;17.70;53.30;;;;;;5169544;27;45128;-71
2023/01/07 00:03:16;;;;;;;1.48;1.38;;;17.70;53.20;;;;;;5169695;27;45212;-72
2023/01/07 00:05:43;;;;;;;1.80;1.70;;;17.70;53.30;;;;;;5169227;27;46645;-72
2023/01/07 00:08:10;;;;;;;1.55;1.45;;;17.60;53.30;;;;;;5169493;27;45240;-72
2023/01/07 00:10:36;;;;;;;1.63;1.50;;;17.60;53.30;;;;;;5169722;27;45183;-71
2023/01/07 00:13:03;;;;;;;1.65;1.40;;;17.60;53.30;;;;;;5170160;27;45362;-71
2023/01/07 00:15:30;;;;;;;1.77;1.45;;;17.60;53.30;;;;;;5169221;27;45382;-72
2023/01/07 00:17:58;;;;;;;1.60;1.20;;;17.60;53.30;;;;;;5169129;27;45355;-72
2023/01/07 00:20:25;;;;;;;1.42;1.30;;;17.60;53.30;;;;;;5169696;27;45196;-72
2023/01/07 00:22:52;;;;;;;1.50;1.40;;;17.60;53.40;;;;;;5169685;27;45129;-72
2023/01/07 00:25:18;;;;;;;1.70;1.60;;;17.50;53.30;;;;;;5169454;27;46214;-72
2023/01/07 00:27:45;;;;;;;1.55;1.45;;;17.50;53.30;;;;;;5168804;27;45340;-72
2023/01/07 00:30:13;;;;;;;1.80;1.48;;;17.50;53.40;;;;;;5169293;27;45248;-71
2023/01/07 00:35:28;;;;;;;1.42;1.33;;;17.50;53.40;;;;;;5161442;27;46081;-72
2023/01/07 00:37:55;;;;;;;1.30;1.20;;;17.50;53.40;;;;;;5169222;27;45600;-71
2023/01/07 00:40:21;;;;;;;1.45;1.35;;;17.50;53.40;;;;;;5169306;27;45305;-72
2023/01/07 00:42:54;;;;;;;1.58;1.48;;;17.50;53.50;;;;;;5169284;27;45305;-71
2023/01/07 00:45:21;;;;;;;1.52;1.42;;;17.50;53.40;;;;;;5168776;27;45259;-72
2023/01/07 00:47:48;;;;;;;1.30;1.20;;;17.50;53.40;;;;;;5168503;27;45319;-71
2023/01/07 00:50:15;;;;;;;1.50;1.40;;;17.50;53.50;;;;;;5168842;27;45282;-72
2023/01/07 00:52:43;;;;;;;1.52;1.42;;;17.40;54.00;;;;;;5169174;27;45181;-71
2023/01/07 00:55:10;;;;;;;1.92;1.65;;;17.50;53.40;;;;;;5166427;27;45176;-71
2023/01/07 00:57:37;;;;;;;1.50;1.40;;;17.40;53.40;;;;;;5172251;27;45283;-72
2023/01/07 01:00:04;;;;;;;1.90;1.50;;;17.40;53.40;;;;;;5172526;27;45267;-71
2023/01/07 01:02:31;;;;;;;1.60;1.50;;;17.40;53.50;;;;;;5172926;27;45155;-71
2023/01/07 01:04:58;;;;;;;1.40;1.30;;;17.40;53.50;;;;;;5172183;27;45192;-71
2023/01/07 01:07:25;;;;;;;1.67;1.58;;;17.40;53.50;;;;;;5172338;27;45216;-71
2023/01/07 01:09:53;;;;;;;1.58;1.40;;;17.40;53.50;;;;;;5172471;27;45275;-71
2023/01/07 01:12:20;;;;;;;1.65;1.50;;;17.40;53.50;;;;;;5169899;27;45340;-72
2023/01/07 01:14:46;;;;;;;1.70;1.60;;;17.40;53.50;;;;;;5172385;27;46143;-71
2023/01/07 01:17:13;;;;;;;2.38;1.67;;;17.40;53.60;;;;;;5172030;27;45306;-72
2023/01/07 01:19:40;;;;;;;1.65;1.50;;;17.40;53.60;;;;;;5172494;27;45284;-71
2023/01/07 01:22:07;;;;;;;2.42;1.50;;;17.40;53.50;;;;;;5172340;27;45398;-71
2023/01/07 01:24:34;;;;;;;1.58;1.48;;;17.40;53.60;;;;;;5171920;27;45466;-72
2023/01/07 01:27:02;;;;;;;2.13;1.42;;;17.40;53.60;;;;;;5171557;27;45129;-72
2023/01/07 01:29:29;;;;;;;2.00;1.40;;;17.30;53.50;;;;;;5171738;27;45193;-71
2023/01/07 01:31:55;;;;;;;1.50;1.40;;;17.30;53.60;;;;;;5172238;27;45237;-71
2023/01/07 01:34:22;;;;;;;1.65;1.55;;;17.30;53.50;;;;;;5171783;27;45428;-71
2023/01/07 01:36:49;;;;;;;1.30;1.20;;;17.30;53.50;;;;;;5171637;27;45340;-72
2023/01/07 01:39:16;;;;;;;1.48;1.38;;;17.30;53.50;;;;;;5171767;27;45116;-73
2023/01/07 01:41:43;;;;;;;1.58;1.42;;;17.30;53.50;;;;;;5171944;27;45249;-73
2023/01/07 01:44:43;;;;;;;1.50;1.40;;;17.30;53.50;;;;;;5171655;27;46373;-72
2023/01/07 01:47:15;;;;;;;1.35;1.20;;;17.30;53.60;;;;;;5136765;27;45360;-72
2023/01/07 01:49:45;;;;;;;1.73;1.35;;;17.30;53.50;;;;;;5171739;27;45298;-71
2023/01/07 01:52:12;;;;;;;1.70;1.33;;;17.30;53.50;;;;;;5172067;27;45203;-71
2023/01/07 01:54:39;;;;;;;1.50;1.30;;;17.30;53.60;;;;;;5171488;27;46842;-71
2023/01/07 01:57:06;;;;;;;1.30;1.20;;;17.30;53.50;;;;;;5171641;27;45328;-71
2023/01/07 01:59:34;;;;;;;1.15;1.05;;;17.30;53.50;;;;;;5171664;27;45453;-71
2023/01/07 02:02:02;;;;;;;1.42;1.33;;;17.30;53.50;;;;;;5171657;27;45117;-72
2023/01/07 02:04:30;;;;;;;1.55;1.40;;;17.30;53.60;;;;;;5171213;27;45493;-71
2023/01/07 02:07:00;;;;;;;1.50;1.35;;;17.30;53.60;;;;;;5169964;27;45353;-72
2023/01/07 02:09:27;;;;;;;1.30;1.20;;;17.20;53.60;;;;;;5171431;27;45202;-71
2023/01/07 02:11:59;;;;;;;2.00;1.40;;;17.20;53.60;;;;;;5171392;27;45186;-72
2023/01/07 02:14:41;;;;;;;1.33;1.23;;;17.30;53.60;;;;;;5171359;27;45216;-72
2023/01/07 02:17:12;;;;;;;1.35;1.20;;;17.20;53.60;;;;;;5171001;27;45334;-72
2023/01/07 02:20:08;;;;;;;1.67;1.48;;;17.20;53.60;;;;;;5171274;27;45193;-71
2023/01/07 02:22:52;;;;;;;1.20;1.10;;;17.20;53.60;;;;;;5171318;27;45167;-72
2023/01/07 02:25:29;;;;;;;1.50;1.30;;;17.20;53.60;;;;;;5170951;27;45440;-72
2023/01/07 02:28:12;;;;;;;1.13;1.02;;;17.20;53.60;;;;;;5170542;27;45243;-72
2023/01/07 02:30:47;;;;;;;1.02;1.02;;;17.20;53.60;;;;;;5171205;27;45178;-72
2023/01/07 02:33:33;;;;;;;1.20;1.10;;;17.20;53.60;;;;;;5171236;27;45343;-71
2023/01/07 02:36:07;;;;;;;1.30;1.20;;;17.20;53.60;;;;;;5170571;27;45623;-71
2023/01/07 02:38:39;;;;;;;1.17;1.15;;;17.20;53.70;;;;;;5170918;27;45185;-71
2023/01/07 02:41:10;;;;;;;1.30;1.20;;;17.20;53.60;;;;;;5170764;27;45274;-72
2023/01/07 02:43:39;;;;;;;1.30;1.20;;;17.20;53.70;;;;;;5171031;27;45227;-72
2023/01/07 02:46:11;;;;;;;1.42;1.33;;;17.20;53.70;;;;;;5170622;27;45641;-71
2023/01/07 02:48:39;;;;;;;1.75;1.00;;;17.20;53.70;;;;;;5170597;27;45350;-72
2023/01/07 02:51:06;;;;;;;1.67;1.27;;;17.20;53.70;;;;;;5170665;27;45428;-71
2023/01/07 02:53:32;;;;;;;2.25;1.15;;;17.20;53.70;;;;;;5170853;27;45124;-71
2023/01/07 02:56:05;;;;;;;1.67;1.40;;;17.20;53.80;;;;;;5170646;27;47496;-72
2023/01/07 02:58:51;;;;;;;1.00;1.00;;;17.10;53.70;;;;;;5170467;27;45190;-72
2023/01/07 03:01:38;;;;;;;1.63;1.30;;;17.20;53.70;;;;;;5156622;27;45477;-72
2023/01/07 03:04:15;;;;;;;1.50;1.40;;;17.10;53.70;;;;;;5170731;27;45181;-71
2023/01/07 03:06:53;;;;;;;1.30;1.20;;;17.10;53.70;;;;;;5170225;27;46417;-72
2023/01/07 03:09:22;;;;;;;1.35;1.08;;;17.10;53.70;;;;;;5170152;27;45324;-72
2023/01/07 03:11:52;;;;;;;1.10;0.95;;;17.10;53.70;;;;;;5170294;27;45185;-71
2023/01/07 03:14:19;;;;;;;1.25;1.15;;;17.10;53.70;;;;;;5170430;27;45453;-72
2023/01/07 03:16:50;;;;;;;1.23;1.13;;;17.10;53.80;;;;;;5170044;27;46688;-71
2023/01/07 03:19:18;;;;;;;1.00;1.00;;;17.10;53.80;;;;;;5169799;27;45317;-71
2023/01/07 03:21:45;;;;;;;1.00;1.00;;;17.10;53.90;;;;;;5170117;27;45353;-72
2023/01/07 03:24:12;;;;;;;1.17;0.90;;;17.10;53.80;;;;;;5170388;27;45174;-71
2023/01/07 03:26:40;;;;;;;1.30;1.20;;;17.10;53.80;;;;;;5169894;27;46689;-71
2023/01/07 03:29:08;;;;;;;1.92;1.30;;;17.10;53.90;;;;;;5169975;27;45313;-72
2023/01/07 03:31:35;;;;;;;1.20;1.10;;;17.10;53.90;;;;;;5169711;27;45281;-71
2023/01/07 03:34:04;;;;;;;1.30;1.20;;;17.00;53.80;;;;;;5170298;27;45239;-72
2023/01/07 03:36:34;;;;;;;1.25;1.15;;;17.00;53.80;;;;;;5170058;27;46393;-71
2023/01/07 03:39:01;;;;;;;1.30;1.20;;;17.00;53.80;;;;;;5169634;27;45227;-71
2023/01/07 03:44:12;;;;;;;1.30;1.20;;;17.00;53.80;;;;;;5170452;27;45173;-71
2023/01/07 03:46:39;;;;;;;1.65;1.30;;;17.00;53.90;;;;;;5170040;27;46384;-71
2023/01/07 03:49:06;;;;;;;1.08;1.08;;;17.00;53.80;;;;;;5170138;27;45251;-72
2023/01/07 03:51:34;;;;;;;1.10;1.00;;;17.00;54.40;;;;;;5170266;27;45374;-71
2023/01/07 03:54:00;;;;;;;1.13;1.10;;;17.00;53.80;;;;;;5170339;27;45427;-71
2023/01/07 03:56:27;;;;;;;1.27;1.00;;;17.00;53.80;;;;;;5169280;27;45657;-71
2023/01/07 03:58:54;;;;;;;1.40;1.30;;;17.00;53.80;;;;;;5169873;27;45283;-71
2023/01/07 04:01:21;;;;;;;1.48;1.23;;;17.00;53.80;;;;;;5169956;27;45165;-71
2023/01/07 04:03:48;;;;;;;1.13;1.02;;;17.00;53.90;;;;;;5170140;27;45296;-72
2023/01/07 04:06:14;;;;;;;1.30;1.20;;;17.00;53.90;;;;;;5169612;27;45328;-72
2023/01/07 04:08:43;;;;;;;1.27;1.10;;;17.00;53.90;;;;;;5169917;27;45236;-72
2023/01/07 04:11:09;;;;;;;1.10;1.00;;;17.00;53.90;;;;;;5167149;27;45282;-71
2023/01/07 04:13:36;;;;;;;1.08;1.00;;;17.00;53.90;;;;;;5170072;27;45249;-71
2023/01/07 04:16:03;;;;;;;1.17;1.15;;;17.00;53.90;;;;;;5169807;27;46377;-72
2023/01/07 04:18:30;;;;;;;1.33;1.23;;;17.00;53.90;;;;;;5169500;27;45240;-71
2023/01/07 04:20:57;;;;;;;1.27;1.17;;;17.00;53.90;;;;;;5169715;27;45285;-71
2023/01/07 04:23:24;;;;;;;1.20;1.00;;;16.90;53.80;;;;;;5169869;27;45168;-71
2023/01/07 04:25:52;;;;;;;1.10;1.00;;;17.00;53.90;;;;;;5169355;27;46665;-72
2023/01/07 04:28:19;;;;;;;1.30;1.20;;;16.90;53.80;;;;;;5169129;27;45357;-71
2023/01/07 04:30:45;;;;;;;1.05;0.95;;;16.90;53.90;;;;;;5170806;27;45450;-72
2023/01/07 04:33:12;;;;;;;1.42;1.27;;;16.90;53.90;;;;;;5173384;27;45338;-72
2023/01/07 04:35:40;;;;;;;1.30;1.20;;;16.90;53.90;;;;;;5173081;27;45188;-71
2023/01/07 04:38:06;;;;;;;1.70;1.40;;;16.90;53.90;;;;;;5172422;27;45202;-71
2023/01/07 04:40:33;;;;;;;1.25;1.00;;;16.90;53.80;;;;;;5173051;27;45296;-71
2023/01/07 04:43:01;;;;;;;0.90;0.90;;;16.90;53.90;;;;;;5173210;27;45402;-72
2023/01/07 04:45:28;;;;;;;1.48;1.23;;;16.90;53.90;;;;;;5172792;27;46434;-71
2023/01/07 04:47:55;;;;;;;1.08;0.90;;;16.90;53.90;;;;;;5172986;27;45143;-71
2023/01/07 04:50:22;;;;;;;0.95;0.93;;;16.90;53.90;;;;;;5173026;27;45198;-71
2023/01/07 04:52:49;;;;;;;1.20;1.10;;;16.90;53.90;;;;;;5173186;27;45416;-72
2023/01/07 04:55:16;;;;;;;1.70;1.00;;;16.90;53.90;;;;;;5172717;27;46811;-71
2023/01/07 04:57:43;;;;;;;1.52;1.00;;;16.90;53.90;;;;;;5172782;27;45172;-71
2023/01/07 05:00:12;;;;;;;1.20;1.10;;;16.90;53.90;;;;;;5172944;27;45128;-70
2023/01/07 05:02:39;;;;;;;0.95;0.95;;;16.90;54.00;;;;;;5173052;27;45345;-71
2023/01/07 05:05:06;;;;;;;1.35;1.15;;;16.90;54.00;;;;;;5172775;27;45465;-71
2023/01/07 05:07:32;;;;;;;1.42;1.15;;;16.90;54.00;;;;;;5172629;27;45171;-71
2023/01/07 05:10:00;;;;;;;1.27;1.20;;;16.90;54.00;;;;;;5172820;27;45183;-71
2023/01/07 05:12:26;;;;;;;1.23;0.98;;;16.90;54.00;;;;;;5172947;27;45128;-71
2023/01/07 05:14:53;;;;;;;1.10;1.00;;;16.90;54.00;;;;;;5172641;27;46540;-71
2023/01/07 05:17:21;;;;;;;1.08;0.98;;;16.90;54.00;;;;;;5172434;27;45326;-72
2023/01/07 05:19:48;;;;;;;0.90;0.90;;;16.80;53.90;;;;;;5172699;27;45188;-71
2023/01/07 05:22:15;;;;;;;1.27;1.17;;;16.80;53.90;;;;;;5171912;27;45257;-71
2023/01/07 05:24:42;;;;;;;1.10;1.00;;;16.80;54.00;;;;;;5172176;27;46661;-71
2023/01/07 05:27:09;;;;;;;1.33;1.23;;;16.80;54.00;;;;;;5171993;27;45277;-71
2023/01/07 05:29:35;;;;;;;0.80;0.80;;;16.80;54.00;;;;;;5172380;27;45367;-71
2023/01/07 05:32:02;;;;;;;1.15;1.05;;;16.80;54.00;;;;;;5172493;27;45296;-71
2023/01/07 05:34:30;;;;;;;1.10;0.98;;;16.80;54.00;;;;;;5172082;27;45485;-71
2023/01/07 05:36:57;;;;;;;1.00;1.00;;;16.80;54.00;;;;;;5172164;27;45251;-71
2023/01/07 05:39:24;;;;;;;0.68;0.68;;;16.80;54.00;;;;;;5172377;27;45299;-71
2023/01/07 05:41:51;;;;;;;0.88;0.88;;;16.80;54.00;;;;;;5172102;27;45425;-72
2023/01/07 05:44:18;;;;;;;0.95;0.95;;;16.80;54.00;;;;;;5172064;27;45549;-72
2023/01/07 05:46:45;;;;;;;1.05;0.98;;;17.00;53.80;;;;;;5172080;27;45186;-71
2023/01/07 05:49:12;;;;;;;1.17;1.08;;;17.10;53.30;;;;;;5172090;27;45228;-72
2023/01/07 05:51:40;;;;;;;1.10;1.00;;;17.30;53.00;;;;;;5172225;27;45331;-71
2023/01/07 05:54:07;;;;;;;0.80;0.80;;;17.40;52.80;;;;;;5172074;27;45413;-71
2023/01/07 05:56:34;;;;;;;1.25;1.13;;;17.40;52.50;;;;;;5171986;27;45212;-71
2023/01/07 05:59:01;;;;;;;1.00;1.00;;;17.50;52.30;;;;;;5171927;27;45135;-71
2023/01/07 06:01:28;;;;;;;0.70;0.70;;;17.50;52.20;;;;;;5172046;27;45176;-71
2023/01/07 06:03:54;;;;;;;0.88;0.88;;;17.60;52.20;;;;;;5171264;27;46930;-70
2023/01/07 06:06:21;;;;;;;1.10;1.00;;;17.60;52.10;;;;;;5171043;27;45224;-71
2023/01/07 06:08:49;;;;;;;0.80;0.80;;;17.60;52.00;;;;;;5171992;27;45233;-72
2023/01/07 06:11:16;;;;;;;0.93;0.90;;;17.60;52.30;;;;;;5171845;27;45414;-71
2023/01/07 06:13:43;;;;;;;0.93;0.60;;;17.60;52.00;;;;;;5171468;27;46671;-71
2023/01/07 06:16:10;;;;;;;0.90;0.80;;;17.70;52.00;;;;;;5171522;27;45247;-71
2023/01/07 06:18:37;;;;;;;1.00;1.00;;;17.70;52.00;;;;;;5171543;27;45288;-71
2023/01/07 06:21:04;;;;;;;1.05;1.00;;;17.70;52.00;;;;;;5171671;27;45434;-71
2023/01/07 06:23:31;;;;;;;1.25;1.00;;;17.70;52.00;;;;;;5171302;27;46410;-71
2023/01/07 06:25:59;;;;;;;0.60;0.60;;;17.70;52.00;;;;;;5171244;27;45239;-71
2023/01/07 06:28:26;;;;;;;1.60;1.00;;;17.60;51.90;;;;;;5171228;27;45288;-71
2023/01/07 06:30:53;;;;;;;1.08;0.98;;;17.60;51.90;;;;;;5171597;27;45393;-71
2023/01/07 06:33:20;;;;;;;0.77;0.77;;;17.60;52.00;;;;;;5171076;27;45432;-71
2023/01/07 06:35:46;;;;;;;0.90;0.90;;;17.60;52.00;;;;;;5171247;27;45192;-71
2023/01/07 06:38:13;;;;;;;0.88;0.88;;;17.60;52.00;;;;;;5171227;27;45188;-71
2023/01/07 06:40:40;;;;;;;0.90;0.80;;;17.60;52.00;;;;;;5171479;27;45402;-71
2023/01/07 06:43:08;;;;;;;0.82;0.82;;;17.60;52.00;;;;;;5170807;27;45318;-72
2023/01/07 06:45:35;;;;;;;0.85;0.80;;;17.60;52.10;;;;;;5171128;27;45263;-71
2023/01/07 06:48:02;;;;;;;0.93;0.90;;;17.50;52.10;;;;;;5170253;27;45299;-71
2023/01/07 06:50:29;;;;;;;0.80;0.80;;;17.50;52.10;;;;;;5171165;27;45224;-71
2023/01/07 06:52:56;;;;;;;1.02;0.93;;;17.50;52.10;;;;;;5170177;27;46319;-71
2023/01/07 06:55:23;;;;;;;0.80;0.80;;;17.50;52.10;;;;;;5170703;27;45288;-71
2023/01/07 06:57:50;;;;;;;0.93;0.82;;;17.50;52.20;;;;;;5170892;27;45394;-72
2023/01/07 07:00:18;;;;;;;0.80;0.80;;;17.50;52.20;;;;;;5171116;27;45197;-71
2023/01/07 07:02:45;;;;;;;0.70;0.63;;;17.50;52.30;;;;;;5170599;27;46677;-71
2023/01/07 07:05:12;;;;;;;0.70;0.70;;;17.40;52.90;;;;;;5170770;27;45396;-72
2023/01/07 07:07:38;;;;;;;1.70;0.80;;;17.40;52.20;;;;;;5171033;27;45407;-71
2023/01/07 07:10:07;;;;;;;0.70;0.70;;;17.40;52.30;;;;;;5171056;27;45379;-72
2023/01/07 07:12:34;;;;;;;0.70;0.70;;;17.40;52.30;;;;;;5170494;27;46788;-72
2023/01/07 07:15:00;;;;;;;0.88;0.88;;;17.40;52.40;;;;;;5170679;27;45341;-72
2023/01/07 07:17:29;;;;;;;1.38;0.80;;;17.40;52.30;;;;;;5170718;27;45148;-72
2023/01/07 07:19:55;;;;;;;0.50;0.50;;;17.40;52.40;;;;;;5170601;27;45223;-72
2023/01/07 07:22:22;;;;;;;1.25;0.90;;;17.30;52.30;;;;;;5170359;27;45525;-72
2023/01/07 07:24:49;;;;;;;0.77;0.77;;;17.30;52.40;;;;;;5170422;27;45132;-72
2023/01/07 07:27:16;;;;;;;0.70;0.70;;;17.30;52.40;;;;;;5169813;27;45331;-72
2023/01/07 07:29:43;;;;;;;0.90;0.90;;;17.30;52.40;;;;;;5168446;27;45298;-72
2023/01/07 07:32:09;;;;;;;1.10;1.00;;;17.30;52.40;;;;;;5168635;27;46712;-72
2023/01/07 07:34:38;;;;;;;0.70;0.70;;;17.30;52.50;;;;;;5168775;27;45242;-72
2023/01/07 07:37:04;;;;;;;0.70;0.70;;;17.20;52.50;;;;;;5169053;27;45242;-72
2023/01/07 07:39:32;;;;;;;0.95;0.68;;;17.20;52.50;;;;;;5168943;27;45300;-72
2023/01/07 07:42:01;;;;;;;0.85;0.80;;;17.20;52.50;;;;;;5168659;27;47015;-72
2023/01/07 07:44:28;;;;;;;0.80;0.80;;;17.20;52.50;;;;;;5168620;27;45219;-72
2023/01/07 07:46:55;;;;;;;0.77;0.77;;;17.20;52.50;;;;;;5168632;27;45212;-72
2023/01/07 07:49:22;;;;;;;1.00;0.77;;;17.20;52.50;;;;;;5168733;27;45285;-72
2023/01/07 07:51:50;;;;;;;0.70;0.70;;;17.10;52.50;;;;;;5168296;27;45411;-72
2023/01/07 07:54:17;;;;;;;0.80;0.80;;;17.10;52.50;;;;;;5168671;27;45252;-72
2023/01/07 07:56:44;;;;;;;0.82;0.75;;;17.10;52.50;;;;;;5168565;27;45301;-71
2023/01/07 07:59:11;;;;;;;0.60;0.60;;;17.10;52.50;;;;;;5168765;27;45166;-72
2023/01/07 08:01:37;;;;;;;0.80;0.80;;;17.10;52.50;;;;;;5168236;27;45427;-72
2023/01/07 08:04:04;;;;;;;0.90;0.90;;;17.10;52.40;;;;;;5168273;27;45242;-72
2023/01/07 08:06:33;;;;;;;0.70;0.70;;;17.10;52.40;;;;;;5167452;27;45320;-71
2023/01/07 08:09:01;;;;;;;0.73;0.70;;;17.10;52.40;;;;;;5168608;27;45195;-71
2023/01/07 08:11:28;;;;;;;0.70;0.70;;;17.00;52.40;;;;;;5168303;27;47484;-72
2023/01/07 08:13:54;;;;;;;0.63;0.63;;;17.00;52.40;;;;;;5168121;27;45350;-70
2023/01/07 08:16:21;;;;;;;0.95;0.73;;;17.00;52.40;;;;;;5167649;27;45227;-71
2023/01/07 08:18:48;;;;;;;0.82;0.80;;;17.00;52.40;;;;;;5168321;27;45101;-72
2023/01/07 08:21:15;;;;;;;0.68;0.68;;;17.00;52.40;;;;;;5168427;27;45246;-71
2023/01/07 08:23:41;;;;;;;0.50;0.50;;;17.00;52.40;;;;;;5168425;27;45241;-72
2023/01/07 08:26:10;;;;;;;0.60;0.60;;;17.00;52.40;;;;;;5168348;27;45353;-71
2023/01/07 08:28:37;;;;;;;0.60;0.60;;;17.00;52.40;;;;;;5128750;27;1135220;-71
2023/01/07 08:31:04;;;;;;;0.80;0.80;;;17.00;52.40;;;;;;5169362;27;45191;-72
2023/01/07 08:33:36;;;;;;;0.73;0.65;;;16.90;52.40;;;;;;5169337;27;45311;-72
2023/01/07 08:36:03;;;;;;;0.60;0.60;;;16.90;52.50;;;;;;5169721;27;45157;-71
2023/01/07 08:38:30;;;;;;;0.60;0.60;;;16.90;52.50;;;;;;5169716;27;45321;-72
2023/01/07 08:40:57;;;;;;;0.70;0.70;;;16.90;52.50;;;;;;5169173;27;46736;-72
2023/01/07 08:43:25;;;;;;;0.80;0.80;;;16.90;52.50;;;;;;5169250;27;45248;-72
2023/01/07 08:45:52;;;;;;;1.05;0.77;;;16.90;53.10;;;;;;5169648;27;45306;-71
2023/01/07 08:48:19;;;;;;;0.80;0.80;;;16.90;52.50;;;;;;5169690;27;45244;-71
2023/01/07 08:50:49;;;;;;;0.70;0.70;;;16.90;52.60;;;;;;5166357;27;46565;-72
2023/01/07 08:53:15;;;;;;;0.88;0.88;;;16.90;52.60;;;;;;5169021;27;45341;-72
2023/01/07 08:55:42;;;;;;;0.65;0.65;;;16.90;52.60;;;;;;5169154;27;45228;-71
2023/01/07 08:58:09;;;;;;;1.10;0.70;;;16.90;52.60;;;;;;5169434;27;45229;-72
2023/01/07 09:00:37;;;;;;;1.17;0.75;;;16.90;52.60;;;;;;5168108;27;47603;-71
2023/01/07 09:03:04;;;;;;;1.17;0.80;;;16.90;52.60;;;;;;5168515;27;45296;-71
2023/01/07 09:05:31;;;;;;;0.90;0.90;;;16.90;53.10;;;;;;5169027;27;45304;-73
2023/01/07 09:07:58;;;;;;;1.25;1.13;;;16.90;51.70;;;;;;5169535;27;45356;-71
2023/01/07 09:10:24;;;;;;;1.50;1.02;;;16.90;51.10;;;;;;5168882;27;47298;-71
2023/01/07 09:12:51;;;;;;;1.20;1.10;;;16.90;50.80;;;;;;5168764;27;45263;-71
2023/01/07 09:15:18;;;;;;;1.23;1.13;;;16.90;50.50;;;;;;5169008;27;45280;-71
2023/01/07 09:17:46;;;;;;;1.55;1.20;;;16.90;50.20;;;;;;5171947;27;45316;-71
2023/01/07 09:20:13;;;;;;;0.88;0.88;;;16.90;50.10;;;;;;5172207;27;46507;-72
2023/01/07 09:22:40;;;;;;;2.75;1.05;;;16.90;50.00;;;;;;5172485;27;45138;-71
2023/01/07 09:25:07;;;;;;;0.90;0.90;;;16.90;50.00;;;;;;5172683;27;45256;-71
2023/01/07 09:27:36;;;;;;;1.42;0.80;;;16.90;49.90;;;;;;5172411;27;45341;-71
2023/01/07 09:30:03;;;;;;;1.83;1.05;;;16.90;49.70;;;;;;5172106;27;46668;-71
2023/01/07 09:32:29;;;;;;;1.38;1.20;;;16.80;49.50;;;;;;5172134;27;45209;-72
2023/01/07 09:34:57;;;;;;;0.85;0.80;;;16.80;49.60;;;;;;5172074;27;45252;-72
2023/01/07 09:37:24;;;;;;;1.08;0.85;;;16.80;49.80;;;;;;5172469;27;45284;-71
2023/01/07 09:39:51;;;;;;;1.38;0.98;;;16.80;50.10;;;;;;5172023;27;46708;-71
2023/01/07 09:42:23;;;;;;;0.75;0.75;;;16.90;50.20;;;;;;5172107;27;45156;-72
2023/01/07 09:45:14;;;;;;;1.15;0.98;;;16.90;50.20;;;;;;5171732;27;45295;-71
2023/01/07 09:47:42;;;;;;;0.80;0.80;;;17.00;50.30;;;;;;5166681;27;45397;-71
2023/01/07 09:50:15;;;;;;;0.88;0.80;;;17.00;50.20;;;;;;5171810;27;47588;-72
2023/01/07 09:52:43;;;;;;;1.85;1.00;;;17.00;50.20;;;;;;5172114;27;45224;-72
2023/01/07 09:55:14;;;;;;;1.17;0.93;;;17.10;50.30;;;;;;5171510;27;45340;-71
2023/01/07 09:57:41;;;;;;;1.63;0.95;;;17.10;50.30;;;;;;5171528;27;45125;-71
2023/01/07 10:00:13;;;;;;;1.40;1.10;;;17.10;50.30;;;;;;5171645;27;46429;-71
2023/01/07 10:02:44;;;;;;;0.98;0.98;;;17.20;50.30;;;;;;5171966;27;45271;-71
2023/01/07 10:05:22;;;;;;;1.98;0.90;;;17.20;50.30;;;;;;5171861;27;45388;-71
2023/01/07 10:07:52;;;;;;;1.10;0.90;;;17.20;50.30;;;;;;5171882;27;45382;-72
2023/01/07 10:10:24;;;;;;;1.48;0.82;;;17.20;50.30;;;;;;5171603;27;46672;-71
2023/01/07 10:12:52;;;;;;;1.10;0.90;;;17.30;50.30;;;;;;5171597;27;45174;-71
2023/01/07 10:15:43;;;;;;;0.90;0.90;;;17.30;50.30;;;;;;5171605;27;45336;-72
2023/01/07 10:18:26;;;;;;;1.00;0.73;;;17.30;50.20;;;;;;5171852;27;45484;-72
2023/01/07 10:20:57;;;;;;;0.77;0.77;;;17.40;50.20;;;;;;5065746;27;46707;-71
2023/01/07 10:23:24;;;;;;;0.93;0.85;;;17.40;50.10;;;;;;5057312;28;45327;-71
2023/01/07 10:25:52;;;;;;;2.83;1.00;;;17.50;50.20;;;;;;5062964;28;45491;-72
2023/01/07 10:28:22;;;;;;;1.25;1.15;;;17.50;50.10;;;;;;5060921;28;45490;-71
2023/01/07 10:30:50;;;;;;;1.08;0.98;;;17.50;50.10;;;;;;5062416;28;45533;-73
2023/01/07 10:33:24;;;;;;;5.65;1.10;;;17.60;50.10;;;;;;5063272;28;45313;-72
2023/01/07 10:35:57;;;;;;;1.10;1.00;;;17.70;50.10;;;;;;5057793;27;45293;-71
2023/01/07 10:38:24;;;;;;;2.08;0.80;;;17.70;50.10;;;;;;5058883;27;45445;-71
2023/01/07 10:40:53;;;;;;;2.38;0.90;;;17.80;50.10;;;;;;5081117;27;46823;-71
2023/01/07 10:43:26;;;;;;;1.02;0.85;;;17.90;50.00;;;;;;5069218;27;45354;-73
2023/01/07 10:46:02;;;;;;;2.95;0.90;;;17.90;50.40;;;;;;5054308;28;45577;-71
2023/01/07 10:48:43;;;;;;;0.93;0.90;;;18.00;49.70;;;;;;5053035;28;45302;-71
2023/01/07 10:51:22;;;;;;;2.13;1.05;;;18.00;49.60;;;;;;5053779;27;47957;-71
2023/01/07 10:53:54;;;;;;;1.58;0.95;;;18.10;49.60;;;;;;5056202;28;45318;-73
2023/01/07 10:56:23;;;;;;;2.78;1.00;;;18.10;49.40;;;;;;5054169;28;45246;-72
2023/01/07 10:58:50;;;;;;;0.73;0.70;;;18.20;49.30;;;;;;5055985;27;45271;-73
2023/01/07 11:01:22;;;;;;;2.25;1.00;;;18.30;49.20;;;;;;5058597;27;45418;-72
2023/01/07 11:03:49;;;;;;;1.95;0.95;;;18.30;49.10;;;;;;5052613;28;45319;-74
2023/01/07 11:06:18;;;;;;;1.02;0.77;;;18.40;49.10;;;;;;5061531;27;45390;-72
2023/01/07 11:08:44;;;;;;;1.83;0.80;;;18.50;49.00;;;;;;5061805;28;45407;-73
2023/01/07 11:11:14;;;;;;;3.13;0.90;;;18.60;49.00;;;;;;5062666;28;45756;-73
2023/01/07 11:13:41;;;;;;;2.15;1.00;;;18.60;49.10;;;;;;5065697;28;45025;-73
2023/01/07 11:16:10;;;;;;;0.90;0.90;;;18.70;49.10;;;;;;5059925;27;45550;-70
2023/01/07 11:18:41;;;;;;;2.00;0.90;;;18.80;48.70;;;;;;5064121;28;45458;-73
2023/01/07 11:21:08;;;;;;;1.50;0.70;;;19.00;48.80;;;;;;5063262;28;45387;-72
2023/01/07 11:23:37;;;;;;;0.60;0.60;;;19.10;48.50;;;;;;5060200;27;44842;-70
2023/01/07 11:26:12;;;;;;;1.40;0.77;;;19.10;48.40;;;;;;5063608;28;45420;-69
2023/01/07 11:28:42;;;;;;;3.22;1.00;;;19.20;48.70;;;;;;5065205;28;45417;-69
2023/01/07 11:31:09;;;;;;;2.00;1.20;;;19.30;48.30;;;;;;5063557;27;45487;-70
2023/01/07 11:33:37;;;;;;;1.90;1.00;;;19.40;48.30;;;;;;5061330;28;45238;-71
2023/01/07 11:36:05;;;;;;;4.43;1.33;;;19.50;48.00;;;;;;5063525;28;45427;-74
2023/01/07 11:38:32;;;;;;;6.43;3.15;;;19.60;48.20;;;;;;5061341;28;45809;-69
2023/01/07 11:41:01;;;;;;;10.45;3.85;;;19.60;48.20;;;;;;5064883;27;45307;-70
2023/01/07 11:43:31;;;;;;;7.05;2.92;;;19.70;48.10;;;;;;5084183;27;45438;-70
2023/01/07 11:45:59;;;;;;;8.50;2.92;;;19.80;48.00;;;;;;5057983;28;45276;-70
2023/01/07 11:48:28;;;;;;;6.95;2.90;;;19.90;48.10;;;;;;5066380;28;45273;-70
2023/01/07 11:50:58;;;;;;;15.35;3.78;;;20.00;47.80;;;;;;5060408;28;45458;-72
2023/01/07 11:53:33;;;;;;;13.70;4.82;;;20.00;48.00;;;;;;5063760;28;45232;-73
2023/01/07 11:56:02;;;;;;;14.45;4.47;;;20.10;47.80;;;;;;5063990;27;45368;-73
2023/01/07 11:58:30;;;;;;;12.45;4.93;;;20.20;48.10;;;;;;5065611;28;45371;-72
2023/01/07 12:01:18;;;;;;;13.68;4.35;;;20.30;47.40;;;;;;5064315;28;45255;-73
2023/01/07 12:03:45;;;;;;;10.27;3.80;;;20.40;47.40;;;;;;5063241;28;45490;-74
2023/01/07 12:06:18;;;;;;;13.27;4.63;;;20.50;47.50;;;;;;5062470;27;45318;-72
2023/01/07 12:08:51;;;;;;;15.73;4.80;;;20.50;47.50;;;;;;5064843;28;45399;-74
2023/01/07 12:11:19;;;;;;;13.90;4.60;;;20.50;47.30;;;;;;5063482;27;45637;-75
2023/01/07 12:13:48;;;;;;;13.55;4.85;;;20.50;47.50;;;;;;5063558;27;45526;-74
2023/01/07 12:16:14;;;;;;;14.73;5.53;;;20.50;47.30;;;;;;5063695;27;45163;-75
2023/01/07 12:18:54;;;;;;;12.57;4.82;;;20.40;47.30;;;;;;5063848;28;45299;-74
2023/01/07 12:21:32;;;;;;;12.25;4.03;;;20.40;47.40;;;;;;5063056;28;47323;-74
2023/01/07 12:24:27;;;;;;;11.38;4.18;;;20.40;47.40;;;;;;5063294;28;45316;-74
2023/01/07 12:26:58;;;;;;;12.93;4.03;;;20.50;47.20;;;;;;5054006;27;45298;-74
2023/01/07 12:29:35;;;;;;;5.45;3.70;;;20.60;46.80;;;;;;5063457;28;45285;-73
2023/01/07 12:32:09;;;;;;;11.60;3.90;;;20.70;46.70;;;;;;5063123;27;45855;-73
2023/01/07 12:34:41;;;;;;;7.60;3.97;;;20.80;46.60;;;;;;5063058;28;45381;-73
2023/01/07 12:37:12;;;;;;;6.85;3.35;;;20.80;46.40;;;;;;5063370;28;45144;-73
2023/01/07 12:39:40;;;;;;;8.85;3.67;;;20.80;46.60;;;;;;5063366;28;45457;-73
2023/01/07 12:42:10;;;;;;;7.15;3.83;;;20.80;47.00;;;;;;5062837;28;46706;-72
2023/01/07 12:44:39;;;;;;;7.05;2.85;;;20.70;47.40;;;;;;5063085;28;45371;-72
2023/01/07 12:47:08;;;;;;;8.43;3.80;;;20.60;46.90;;;;;;5063037;27;45288;-74
2023/01/07 12:49:36;;;;;;;10.20;4.03;;;20.40;47.30;;;;;;5054060;28;45461;-74
2023/01/07 12:52:05;;;;;;;9.43;3.65;;;20.20;47.70;;;;;;5043882;28;45356;-74
2023/01/07 12:54:38;;;;;;;8.23;3.25;;;20.10;48.00;;;;;;5045271;28;45275;-74
2023/01/07 12:57:09;;;;;;;6.70;2.85;;;20.00;48.30;;;;;;5045142;28;45199;-72
2023/01/07 12:59:37;;;;;;;5.85;3.00;;;19.80;48.50;;;;;;5045531;28;45455;-73